Time;durP1;ratioP1;P1;durP2;ratioP2;P2;SDS_P1;SDS_P2;PMS_P1;PMS_P2;Temp;Humidity;BMP_temperature;BMP_pressure;BME280_temperature;BME280_humidity;BME280_pressure;Samples;Min_cycle;Max_cycle;Signal;HPM_P1;HPM_P2
2023/09/09 00:00:35;;;;;;;;;;;24.60;51.50;;;;;;5053598;28;20031;-62
2023/09/09 00:03:02;;;;;;;;;;;24.60;51.00;;;;;;5053921;28;19924;-62
2023/09/09 00:05:29;;;;;;;;;;;24.60;51.00;;;;;;5053741;28;19925;-62
2023/09/09 00:07:57;;;;;;;;;;;24.60;51.30;;;;;;5053686;28;20015;-62
2023/09/09 00:10:24;;;;;;;;;;;24.60;51.00;;;;;;5053439;28;19970;-62
2023/09/09 00:12:51;;;;;;;;;;;24.60;51.00;;;;;;5052985;28;19972;-62
2023/09/09 00:15:18;;;;;;;;;;;24.60;51.00;;;;;;5053455;28;19935;-62
2023/09/09 00:17:45;;;;;;;;;;;24.60;51.00;;;;;;5053899;28;19951;-62
2023/09/09 00:20:14;;;;;;;;;;;24.60;51.10;;;;;;5052047;28;19925;-62
2023/09/09 00:22:41;;;;;;;;;;;24.60;51.10;;;;;;5052809;28;19978;-62
2023/09/09 00:25:08;;;;;;;;;;;24.60;51.10;;;;;;5053367;28;19972;-62
2023/09/09 00:27:35;;;;;;;;;;;24.60;51.00;;;;;;5053673;28;19979;-62
2023/09/09 00:30:02;;;;;;;;;;;24.60;51.00;;;;;;5053618;28;19967;-62
2023/09/09 00:32:30;;;;;;;;;;;24.60;51.00;;;;;;5053220;28;20700;-62
2023/09/09 00:34:57;;;;;;;;;;;24.60;50.90;;;;;;5053138;28;19928;-62
2023/09/09 00:37:24;;;;;;;;;;;24.60;50.90;;;;;;5053384;28;19924;-62
2023/09/09 00:39:51;;;;;;;;;;;24.60;50.90;;;;;;5053416;28;20319;-62
2023/09/09 00:42:18;;;;;;;;;;;24.60;50.90;;;;;;5053587;28;19929;-61
2023/09/09 00:44:45;;;;;;;;;;;24.60;50.90;;;;;;5053166;28;19951;-62
2023/09/09 00:47:12;;;;;;;;;;;24.60;50.90;;;;;;5052145;28;19924;-62
2023/09/09 00:49:39;;;;;;;;;;;24.60;50.90;;;;;;5053111;28;19925;-62
2023/09/09 00:52:07;;;;;;;;;;;24.60;50.90;;;;;;5053151;28;20280;-62
2023/09/09 00:54:33;;;;;;;;;;;24.60;51.00;;;;;;5052704;28;19968;-62
2023/09/09 00:57:03;;;;;;;;;;;24.60;51.00;;;;;;5053436;28;19924;-62
2023/09/09 00:59:31;;;;;;;;;;;24.60;51.00;;;;;;5053103;28;19978;-63
2023/09/09 01:01:58;;;;;;;;;;;24.60;51.00;;;;;;5053277;28;19967;-62
2023/09/09 01:04:25;;;;;;;;;;;24.60;51.00;;;;;;5052761;28;19925;-62
2023/09/09 01:06:53;;;;;;;;;;;24.60;51.10;;;;;;5053421;28;19947;-62
2023/09/09 01:09:20;;;;;;;;;;;24.60;51.10;;;;;;5052192;28;19970;-62
2023/09/09 01:11:46;;;;;;;;;;;24.50;51.10;;;;;;5052705;28;19972;-62
2023/09/09 01:14:14;;;;;;;;;;;24.60;51.10;;;;;;5052474;28;20373;-62
2023/09/09 01:16:41;;;;;;;;;;;24.60;51.10;;;;;;5052867;28;19925;-62
2023/09/09 01:19:08;;;;;;;;;;;24.60;51.10;;;;;;5053038;28;20319;-62
2023/09/09 01:21:38;;;;;;;;;;;24.50;51.10;;;;;;5053257;28;19968;-63
2023/09/09 01:24:05;;;;;;;;;;;24.50;51.20;;;;;;5052788;28;19924;-62
2023/09/09 01:26:32;;;;;;;;;;;24.50;51.20;;;;;;5053761;28;19935;-62
2023/09/09 01:28:59;;;;;;;;;;;24.50;51.70;;;;;;5055382;28;19925;-62
2023/09/09 01:31:26;;;;;;;;;;;24.50;51.20;;;;;;5056639;28;19974;-62
2023/09/09 01:33:56;;;;;;;;;;;24.50;51.20;;;;;;5056760;28;19975;-62
2023/09/09 01:36:24;;;;;;;;;;;24.50;51.20;;;;;;5056783;28;19968;-62
2023/09/09 01:38:51;;;;;;;;;;;24.50;51.20;;;;;;5056147;28;19944;-62
2023/09/09 01:41:18;;;;;;;;;;;24.50;51.20;;;;;;5056541;28;20027;-62
2023/09/09 01:43:44;;;;;;;;;;;24.50;51.20;;;;;;5056606;28;19975;-62
2023/09/09 01:46:12;;;;;;;;;;;24.50;51.10;;;;;;5056855;28;20033;-62
2023/09/09 01:48:39;;;;;;;;;;;24.50;51.10;;;;;;5056752;28;19932;-63
2023/09/09 01:51:06;;;;;;;;;;;24.50;51.00;;;;;;5056505;28;19925;-62
2023/09/09 01:53:34;;;;;;;;;;;24.50;51.00;;;;;;5056444;28;19924;-62
2023/09/09 01:56:01;;;;;;;;;;;24.50;51.00;;;;;;5056962;28;20611;-62
2023/09/09 01:58:28;;;;;;;;;;;24.50;51.00;;;;;;5055996;28;19924;-61
2023/09/09 02:00:55;;;;;;;;;;;24.50;51.00;;;;;;5056441;28;20338;-62
2023/09/09 02:03:22;;;;;;;;;;;24.50;51.00;;;;;;5056056;28;19971;-62
2023/09/09 02:05:49;;;;;;;;;;;24.50;51.00;;;;;;5056196;28;19932;-62
2023/09/09 02:08:16;;;;;;;;;;;24.50;51.00;;;;;;5055495;28;20403;-62
2023/09/09 02:10:47;;;;;;;;;;;24.50;51.00;;;;;;5056288;28;19925;-63
2023/09/09 02:13:14;;;;;;;;;;;24.50;51.10;;;;;;5055743;28;19952;-62
2023/09/09 02:15:41;;;;;;;;;;;24.50;51.10;;;;;;5055502;28;19971;-62
2023/09/09 02:18:08;;;;;;;;;;;24.60;51.20;;;;;;5055719;28;19932;-61
2023/09/09 02:20:35;;;;;;;;;;;24.50;51.10;;;;;;5055776;28;19924;-62
2023/09/09 02:23:02;;;;;;;;;;;24.50;51.10;;;;;;5056217;28;19978;-62
2023/09/09 02:25:29;;;;;;;;;;;24.50;51.10;;;;;;5056269;28;20019;-62
2023/09/09 02:27:56;;;;;;;;;;;24.50;51.20;;;;;;5056085;28;19944;-62
2023/09/09 02:30:23;;;;;;;;;;;24.50;51.20;;;;;;5055880;28;20379;-62
2023/09/09 02:32:50;;;;;;;;;;;24.50;51.20;;;;;;5055371;28;20019;-62
2023/09/09 02:35:17;;;;;;;;;;;24.50;51.20;;;;;;5070554;28;19924;-62
2023/09/09 02:37:44;;;;;;;;;;;24.50;51.20;;;;;;5054699;28;20015;-62
2023/09/09 02:40:11;;;;;;;;;;;24.50;51.20;;;;;;5054929;28;19957;-62
2023/09/09 02:42:38;;;;;;;;;;;24.50;51.20;;;;;;5055552;28;20359;-62
2023/09/09 02:45:06;;;;;;;;;;;24.50;51.20;;;;;;5055612;28;19925;-62
2023/09/09 02:47:33;;;;;;;;;;;24.50;51.30;;;;;;5055394;28;19932;-62
2023/09/09 02:50:00;;;;;;;;;;;24.40;51.20;;;;;;5055117;28;19925;-62
2023/09/09 02:52:28;;;;;;;;;;;24.40;51.20;;;;;;5054671;28;19972;-62
2023/09/09 02:54:55;;;;;;;;;;;24.50;51.30;;;;;;5054618;28;19931;-62
2023/09/09 02:57:23;;;;;;;;;;;24.50;51.30;;;;;;5055069;28;19960;-62
2023/09/09 02:59:50;;;;;;;;;;;24.50;51.20;;;;;;5055154;28;19925;-63
2023/09/09 03:02:17;;;;;;;;;;;24.40;51.10;;;;;;5055215;28;19970;-62
2023/09/09 03:04:44;;;;;;;;;;;24.50;51.20;;;;;;5070398;28;20281;-62
2023/09/09 03:07:11;;;;;;;;;;;24.50;51.20;;;;;;5054600;28;20439;-62
2023/09/09 03:09:38;;;;;;;;;;;24.50;51.10;;;;;;5055207;28;19929;-61
2023/09/09 03:12:06;;;;;;;;;;;24.50;51.10;;;;;;5054742;28;19971;-62
2023/09/09 03:14:33;;;;;;;;;;;24.50;51.10;;;;;;5054761;28;20026;-61
2023/09/09 03:17:00;;;;;;;;;;;24.50;51.10;;;;;;5054778;28;19967;-62
2023/09/09 03:19:27;;;;;;;;;;;24.50;51.10;;;;;;5054333;28;19924;-61
2023/09/09 03:21:57;;;;;;;;;;;24.50;51.10;;;;;;5054646;28;20027;-62
2023/09/09 03:24:24;;;;;;;;;;;24.50;51.10;;;;;;5054502;28;19925;-61
2023/09/09 03:26:51;;;;;;;;;;;24.50;51.20;;;;;;5054262;28;19924;-61
2023/09/09 03:29:18;;;;;;;;;;;24.50;51.20;;;;;;5054205;28;19936;-62
2023/09/09 03:31:45;;;;;;;;;;;24.50;51.20;;;;;;5054497;28;20364;-61
2023/09/09 03:34:13;;;;;;;;;;;24.50;51.20;;;;;;5054542;28;19925;-61
2023/09/09 03:36:40;;;;;;;;;;;24.40;51.20;;;;;;5054098;28;19929;-62
2023/09/09 03:39:07;;;;;;;;;;;24.50;51.40;;;;;;5054246;28;19925;-62
2023/09/09 03:41:34;;;;;;;;;;;24.40;51.20;;;;;;5054311;28;19964;-62
2023/09/09 03:44:01;;;;;;;;;;;24.50;51.20;;;;;;5053132;28;19925;-62
2023/09/09 03:46:29;;;;;;;;;;;24.40;51.20;;;;;;5069849;28;19978;-61
2023/09/09 03:48:56;;;;;;;;;;;24.40;51.20;;;;;;5053599;28;20019;-61
2023/09/09 03:51:23;;;;;;;;;;;24.40;51.20;;;;;;5054311;28;20377;-62
2023/09/09 03:53:50;;;;;;;;;;;24.40;51.20;;;;;;5054175;28;19970;-62
2023/09/09 03:56:17;;;;;;;;;;;24.40;51.20;;;;;;5053975;28;19924;-62
2023/09/09 03:58:44;;;;;;;;;;;24.40;51.20;;;;;;5053858;28;19970;-62
2023/09/09 04:01:12;;;;;;;;;;;24.40;51.20;;;;;;5054141;28;19928;-62
2023/09/09 04:03:40;;;;;;;;;;;24.40;51.20;;;;;;5053293;28;19924;-62
2023/09/09 04:06:09;;;;;;;;;;;24.40;51.20;;;;;;5054142;28;19928;-62
2023/09/09 04:08:36;;;;;;;;;;;24.40;51.30;;;;;;5053752;28;19986;-61
2023/09/09 04:11:05;;;;;;;;;;;24.40;51.20;;;;;;5053737;28;19925;-62
2023/09/09 04:13:32;;;;;;;;;;;24.40;51.20;;;;;;5053626;28;19924;-62
2023/09/09 04:15:59;;;;;;;;;;;24.40;51.20;;;;;;5053711;28;19929;-61
2023/09/09 04:18:27;;;;;;;;;;;24.40;51.10;;;;;;5053656;28;20027;-62
2023/09/09 04:21:12;;;;;;;;;;;24.40;51.10;;;;;;5053859;28;19951;-62
2023/09/09 04:23:39;;;;;;;;;;;24.50;51.20;;;;;;5053736;28;19929;-62
2023/09/09 04:26:06;;;;;;;;;;;24.50;51.10;;;;;;5053514;28;19932;-62
2023/09/09 04:28:33;;;;;;;;;;;24.50;51.10;;;;;;5053499;28;19935;-62
2023/09/09 04:31:00;;;;;;;;;;;24.50;51.00;;;;;;5053633;28;19970;-62
2023/09/09 04:33:27;;;;;;;;;;;24.50;51.00;;;;;;5053193;28;20026;-62
2023/09/09 04:35:54;;;;;;;;;;;24.50;50.90;;;;;;5068739;28;20007;-61
2023/09/09 04:38:23;;;;;;;;;;;24.40;50.90;;;;;;5053658;28;19931;-62
2023/09/09 04:40:50;;;;;;;;;;;24.40;50.90;;;;;;5053410;28;19928;-61
2023/09/09 04:43:18;;;;;;;;;;;24.30;50.90;;;;;;5052221;28;19924;-62
2023/09/09 04:45:45;;;;;;;;;;;24.10;51.00;;;;;;5053442;28;19948;-61
2023/09/09 04:48:12;;;;;;;;;;;23.90;51.40;;;;;;5053284;28;19925;-62
2023/09/09 04:50:39;;;;;;;;;;;23.70;51.90;;;;;;5053346;28;19929;-61
2023/09/09 04:53:07;;;;;;;;;;;23.40;51.60;;;;;;5053132;28;20365;-61
2023/09/09 04:55:34;;;;;;;;;;;23.10;50.40;;;;;;5068437;28;19925;-61
2023/09/09 04:58:02;;;;;;;;;;;22.90;49.60;;;;;;5053658;28;19987;-62
2023/09/09 05:00:29;;;;;;;;;;;22.50;48.70;;;;;;5068560;28;20345;-61
2023/09/09 05:02:56;;;;;;;;;;;22.20;48.80;;;;;;5055233;28;20300;-62
2023/09/09 05:05:23;;;;;;;;;;;21.90;49.20;;;;;;5057400;28;20331;-61
2023/09/09 05:07:50;;;;;;;;;;;21.60;49.30;;;;;;5072475;28;19975;-61
2023/09/09 05:10:19;;;;;;;;;;;21.30;50.10;;;;;;5057396;28;19972;-62
2023/09/09 05:12:46;;;;;;;;;;;21.00;51.60;;;;;;5056927;28;19924;-61
2023/09/09 05:15:14;;;;;;;;;;;20.80;50.40;;;;;;5057180;28;19925;-62
2023/09/09 05:17:41;;;;;;;;;;;20.50;49.30;;;;;;5056475;28;19947;-61
2023/09/09 05:20:08;;;;;;;;;;;20.30;50.90;;;;;;5057090;28;19925;-61
2023/09/09 05:22:36;;;;;;;;;;;20.20;50.70;;;;;;5056854;28;19975;-61
2023/09/09 05:25:03;;;;;;;;;;;20.00;49.70;;;;;;5056962;28;19979;-61
2023/09/09 05:27:30;;;;;;;;;;;19.80;51.30;;;;;;5072481;28;20020;-61
2023/09/09 05:29:57;;;;;;;;;;;19.70;52.20;;;;;;5056083;28;19924;-61
2023/09/09 05:32:24;;;;;;;;;;;19.60;50.80;;;;;;5056814;28;20016;-61
2023/09/09 05:34:51;;;;;;;;;;;19.50;51.90;;;;;;5056543;28;19925;-61
2023/09/09 05:37:18;;;;;;;;;;;19.40;52.20;;;;;;5071808;28;20503;-61
2023/09/09 05:39:45;;;;;;;;;;;19.40;52.70;;;;;;5071747;28;19968;-61
2023/09/09 05:42:12;;;;;;;;;;;19.30;51.10;;;;;;5056571;28;19925;-61
2023/09/09 05:44:40;;;;;;;;;;;19.30;52.20;;;;;;5056474;28;20456;-61
2023/09/09 05:47:08;;;;;;;;;;;19.20;52.90;;;;;;5056445;28;19951;-61
2023/09/09 05:49:35;;;;;;;;;;;19.20;51.60;;;;;;5056759;28;19987;-61
2023/09/09 05:52:06;;;;;;;;;;;19.10;52.20;;;;;;5056303;28;20016;-61
2023/09/09 05:54:33;;;;;;;;;;;19.10;53.00;;;;;;5056117;28;19982;-61
2023/09/09 05:57:00;;;;;;;;;;;19.00;51.90;;;;;;5056622;28;19928;-61
2023/09/09 05:59:27;;;;;;;;;;;18.90;51.40;;;;;;5056563;28;19932;-61
2023/09/09 06:01:54;;;;;;;;;;;18.90;53.50;;;;;;5056530;28;20309;-61
2023/09/09 06:04:21;;;;;;;;;;;18.80;52.70;;;;;;5056057;28;20020;-61
2023/09/09 06:06:49;;;;;;;;;;;18.80;51.90;;;;;;5056088;28;19929;-61
2023/09/09 06:09:16;;;;;;;;;;;18.70;53.40;;;;;;5055743;28;19925;-61
2023/09/09 06:11:44;;;;;;;;;;;18.70;53.40;;;;;;5056200;28;19925;-61
2023/09/09 06:14:11;;;;;;;;;;;18.70;52.40;;;;;;5055686;28;20344;-61
2023/09/09 06:16:38;;;;;;;;;;;18.70;53.10;;;;;;5055676;28;19975;-61
2023/09/09 06:19:06;;;;;;;;;;;18.60;53.80;;;;;;5055735;28;19964;-61
2023/09/09 06:21:33;;;;;;;;;;;18.60;53.00;;;;;;5056360;28;20334;-61
2023/09/09 06:24:00;;;;;;;;;;;18.60;53.00;;;;;;5055495;28;20389;-61
2023/09/09 06:26:32;;;;;;;;;;;18.60;53.80;;;;;;5054670;28;19975;-61
2023/09/09 06:28:58;;;;;;;;;;;18.60;54.00;;;;;;5056078;28;19931;-61
2023/09/09 06:31:26;;;;;;;;;;;18.60;53.10;;;;;;5056166;28;19925;-62
2023/09/09 06:33:53;;;;;;;;;;;18.60;53.50;;;;;;5055386;28;19928;-61
2023/09/09 06:36:21;;;;;;;;;;;18.60;54.30;;;;;;5055255;28;19933;-61
2023/09/09 06:38:49;;;;;;;;;;;18.60;53.90;;;;;;5055365;28;20416;-61
2023/09/09 06:41:16;;;;;;;;;;;18.60;52.80;;;;;;5056289;28;19982;-61
2023/09/09 06:43:43;;;;;;;;;;;18.60;56.10;;;;;;5055462;28;19925;-61
2023/09/09 06:46:10;;;;;;;;;;;18.60;54.60;;;;;;5055164;28;19929;-61
2023/09/09 06:48:37;;;;;;;;;;;18.50;53.40;;;;;;5055409;28;19928;-61
2023/09/09 06:51:04;;;;;;;;;;;18.60;54.10;;;;;;5055607;28;19995;-61
2023/09/09 06:53:31;;;;;;;;;;;18.60;53.80;;;;;;5055491;28;20416;-62
2023/09/09 06:55:59;;;;;;;;;;;18.60;53.30;;;;;;5054950;28;20274;-61
2023/09/09 06:58:25;;;;;;;;;;;18.60;54.60;;;;;;5055118;28;20325;-61
2023/09/09 07:00:53;;;;;;;;;;;18.60;54.20;;;;;;5070435;28;19979;-61
2023/09/09 07:03:20;;;;;;;;;;;18.60;54.00;;;;;;5053996;28;20324;-61
2023/09/09 07:05:48;;;;;;;;;;;18.70;54.70;;;;;;5054824;28;20015;-61
2023/09/09 07:08:16;;;;;;;;;;;18.70;54.40;;;;;;5054955;28;19925;-61
2023/09/09 07:10:50;;;;;;;;;;;18.70;54.40;;;;;;5055397;28;19928;-61
2023/09/09 07:13:19;;;;;;;;;;;18.70;55.00;;;;;;5054060;28;20008;-61
2023/09/09 07:15:46;;;;;;;;;;;18.70;55.20;;;;;;5054755;28;19975;-61
2023/09/09 07:18:13;;;;;;;;;;;18.60;54.60;;;;;;5054874;28;19956;-61
2023/09/09 07:20:42;;;;;;;;;;;18.60;54.60;;;;;;5054572;28;19924;-61
2023/09/09 07:23:08;;;;;;;;;;;18.60;55.60;;;;;;5054836;28;20015;-61
2023/09/09 07:25:35;;;;;;;;;;;18.60;55.50;;;;;;5053850;28;20372;-61
2023/09/09 07:28:03;;;;;;;;;;;18.60;56.00;;;;;;5054915;28;19931;-61
2023/09/09 07:30:31;;;;;;;;;;;18.60;55.70;;;;;;5054839;28;20284;-61
2023/09/09 07:32:58;;;;;;;;;;;18.60;55.00;;;;;;5054364;28;19971;-61
2023/09/09 07:35:25;;;;;;;;;;;18.60;56.90;;;;;;5054132;28;19925;-61
2023/09/09 07:37:52;;;;;;;;;;;18.60;56.40;;;;;;5054797;28;19924;-61
2023/09/09 07:40:19;;;;;;;;;;;18.60;57.80;;;;;;5054088;28;20278;-61
2023/09/09 07:42:46;;;;;;;;;;;18.50;57.00;;;;;;5054174;28;19968;-61
2023/09/09 07:45:13;;;;;;;;;;;18.50;56.90;;;;;;5054281;28;20019;-61
2023/09/09 07:47:40;;;;;;;;;;;18.50;57.00;;;;;;5054707;28;20126;-61
2023/09/09 07:50:08;;;;;;;;;;;18.50;57.20;;;;;;5054494;28;19931;-61
2023/09/09 07:52:36;;;;;;;;;;;18.50;57.60;;;;;;5054176;28;20384;-61
2023/09/09 07:55:04;;;;;;;;;;;18.50;57.70;;;;;;5054087;28;20016;-61
2023/09/09 07:57:31;;;;;;;;;;;18.60;57.60;;;;;;5054458;28;19975;-61
2023/09/09 07:59:59;;;;;;;;;;;18.50;57.60;;;;;;5053992;28;19971;-61
2023/09/09 08:02:27;;;;;;;;;;;18.50;58.20;;;;;;5053888;28;19928;-61
2023/09/09 08:04:54;;;;;;;;;;;18.50;58.10;;;;;;5053453;28;19939;-61
2023/09/09 08:07:21;;;;;;;;;;;18.50;58.10;;;;;;5053813;28;19931;-60
2023/09/09 08:09:48;;;;;;;;;;;18.50;58.90;;;;;;5054140;28;19925;-61
2023/09/09 08:12:15;;;;;;;;;;;18.50;58.10;;;;;;5052940;28;20331;-61
2023/09/09 08:14:42;;;;;;;;;;;18.50;58.10;;;;;;5053952;28;19925;-61
2023/09/09 08:17:09;;;;;;;;;;;18.50;59.10;;;;;;5054051;28;19932;-61
2023/09/09 08:19:36;;;;;;;;;;;18.50;59.00;;;;;;5053778;28;19971;-61
2023/09/09 08:22:03;;;;;;;;;;;18.50;58.70;;;;;;5053775;28;19925;-61
2023/09/09 08:24:30;;;;;;;;;;;18.50;58.60;;;;;;5053503;28;19929;-61
2023/09/09 08:26:57;;;;;;;;;;;18.60;58.60;;;;;;5053677;28;19932;-61
2023/09/09 08:29:24;;;;;;;;;;;18.60;58.30;;;;;;5053474;28;19924;-61
2023/09/09 08:31:51;;;;;;;;;;;18.50;58.20;;;;;;5053697;28;19951;-61
2023/09/09 08:34:18;;;;;;;;;;;18.50;58.50;;;;;;5053271;28;20357;-61
2023/09/09 08:36:45;;;;;;;;;;;18.40;58.80;;;;;;5053011;28;20004;-62
2023/09/09 08:39:12;;;;;;;;;;;18.40;58.90;;;;;;5053338;28;20300;-61
2023/09/09 08:41:46;;;;;;;;;;;18.50;59.30;;;;;;5053507;28;19932;-61
2023/09/09 08:44:18;;;;;;;;;;;18.50;59.60;;;;;;5053446;28;20310;-61
2023/09/09 08:46:45;;;;;;;;;;;18.50;60.20;;;;;;5053315;28;20007;-59
2023/09/09 08:49:12;;;;;;;;;;;18.60;59.80;;;;;;5053250;28;19925;-61
2023/09/09 08:51:55;;;;;;;;;;;18.70;59.90;;;;;;5053196;28;19972;-60
2023/09/09 08:54:22;;;;;;;;;;;18.80;60.00;;;;;;5052789;28;19929;-61
2023/09/09 08:56:49;;;;;;;;;;;18.80;59.80;;;;;;5052022;28;19925;-61
2023/09/09 08:59:16;;;;;;;;;;;18.80;59.20;;;;;;5053208;28;19925;-61
2023/09/09 09:01:43;;;;;;;;;;;18.90;59.60;;;;;;5053101;28;19975;-61
2023/09/09 09:04:11;;;;;;;;;;;18.90;59.30;;;;;;5051790;28;20384;-60
2023/09/09 09:06:39;;;;;;;;;;;18.90;59.20;;;;;;5052966;28;20507;-60
2023/09/09 09:09:10;;;;;;;;;;;18.90;59.00;;;;;;5053023;28;20384;-60
2023/09/09 09:11:37;;;;;;;;;;;19.00;59.40;;;;;;5053416;28;19925;-61
2023/09/09 09:14:10;;;;;;;;;;;19.00;59.10;;;;;;5052775;28;19932;-61
2023/09/09 09:16:41;;;;;;;;;;;19.00;58.90;;;;;;5053214;28;19978;-61
2023/09/09 09:19:17;;;;;;;;;;;19.00;59.30;;;;;;5053154;28;19925;-61
2023/09/09 09:21:44;;;;;;;;;;;19.00;59.20;;;;;;5053147;28;20019;-61
2023/09/09 09:24:13;;;;;;;;;;;19.00;59.30;;;;;;5052909;28;20015;-61
2023/09/09 09:26:40;;;;;;;;;;;19.00;59.20;;;;;;5053193;28;20420;-60
2023/09/09 09:29:07;;;;;;;;;;;19.10;59.40;;;;;;5052826;28;20019;-61
2023/09/09 09:31:34;;;;;;;;;;;19.10;59.30;;;;;;5052799;28;19979;-61
2023/09/09 09:34:01;;;;;;;;;;;19.10;59.70;;;;;;5052851;28;19929;-61
2023/09/09 09:36:28;;;;;;;;;;;19.10;60.00;;;;;;5052714;28;19925;-60
2023/09/09 09:38:56;;;;;;;;;;;19.20;59.90;;;;;;5053237;28;20024;-61
2023/09/09 09:41:27;;;;;;;;;;;19.20;59.30;;;;;;5052567;28;19925;-61
2023/09/09 09:43:54;;;;;;;;;;;19.20;59.30;;;;;;5052966;28;19970;-61
2023/09/09 09:46:23;;;;;;;;;;;19.30;58.80;;;;;;5052682;28;19929;-61
2023/09/09 09:48:50;;;;;;;;;;;19.30;59.10;;;;;;5055903;28;19986;-60
2023/09/09 09:51:17;;;;;;;;;;;19.30;58.90;;;;;;5056129;28;19925;-61
2023/09/09 09:53:52;;;;;;;;;;;19.30;58.30;;;;;;5057105;28;19925;-61
2023/09/09 09:56:19;;;;;;;;;;;19.30;58.70;;;;;;5056110;28;20372;-61
2023/09/09 09:58:47;;;;;;;;;;;19.30;58.50;;;;;;5056405;28;20328;-61
2023/09/09 10:01:15;;;;;;;;;;;19.30;58.50;;;;;;5056280;28;19928;-61
2023/09/09 10:03:58;;;;;;;;;;;19.20;58.40;;;;;;5056810;28;19928;-60
2023/09/09 10:06:26;;;;;;;;;;;19.20;58.30;;;;;;5056362;28;20339;-61
2023/09/09 10:08:56;;;;;;;;;;;19.20;57.80;;;;;;5055982;28;19925;-61
2023/09/09 10:11:25;;;;;;;;;;;19.20;57.90;;;;;;5056109;28;20015;-61
2023/09/09 10:14:06;;;;;;;;;;;19.20;57.70;;;;;;5056301;28;19979;-60
2023/09/09 10:16:34;;;;;;;;;;;19.20;57.80;;;;;;5056083;28;19937;-61
2023/09/09 10:19:02;;;;;;;;;;;19.20;57.80;;;;;;5055952;28;19966;-62
2023/09/09 10:21:30;;;;;;;;;;;19.20;57.60;;;;;;5056281;28;19968;-60
2023/09/09 10:24:08;;;;;;;;;;;19.20;57.60;;;;;;5056269;28;19925;-60
2023/09/09 10:26:36;;;;;;;;;;;19.20;57.80;;;;;;5055870;28;19936;-61
2023/09/09 10:29:04;;;;;;;;;;;19.20;57.90;;;;;;5055899;28;19994;-61
2023/09/09 10:31:32;;;;;;;;;;;19.20;57.40;;;;;;5055696;28;19924;-61
2023/09/09 10:34:00;;;;;;;;;;;19.20;57.30;;;;;;5055839;28;20003;-60
2023/09/09 10:36:29;;;;;;;;;;;19.20;57.50;;;;;;5055619;28;19928;-61
2023/09/09 10:38:56;;;;;;;;;;;19.20;57.20;;;;;;5055449;28;19931;-61
2023/09/09 10:41:23;;;;;;;;;;;19.20;57.30;;;;;;5055710;28;20007;-61
2023/09/09 10:43:50;;;;;;;;;;;19.20;57.30;;;;;;5055572;28;19971;-60
2023/09/09 10:46:17;;;;;;;;;;;19.20;57.20;;;;;;5055267;28;19932;-61
2023/09/09 10:48:44;;;;;;;;;;;19.20;56.90;;;;;;5055576;28;19925;-61
2023/09/09 10:51:13;;;;;;;;;;;19.20;56.90;;;;;;5070253;28;19978;-61
2023/09/09 10:53:40;;;;;;;;;;;19.20;56.80;;;;;;5055306;28;19971;-61
2023/09/09 10:56:23;;;;;;;;;;;19.20;57.30;;;;;;5054961;28;19925;-62
2023/09/09 10:58:51;;;;;;;;;;;19.20;57.60;;;;;;5054637;28;19947;-60
2023/09/09 11:01:22;;;;;;;;;;;19.20;57.60;;;;;;5055316;28;19929;-61
2023/09/09 11:03:51;;;;;;;;;;;19.20;57.10;;;;;;5055154;28;19925;-61
2023/09/09 11:06:24;;;;;;;;;;;19.20;57.10;;;;;;5055045;28;19928;-61
2023/09/09 11:08:55;;;;;;;;;;;19.30;57.00;;;;;;5054904;28;20372;-61
2023/09/09 11:11:26;;;;;;;;;;;19.30;57.40;;;;;;5054919;28;19979;-61
2023/09/09 11:14:04;;;;;;;;;;;19.30;57.30;;;;;;5055112;28;20375;-61
2023/09/09 11:16:38;;;;;;;;;;;19.30;56.90;;;;;;5054621;28;20284;-61
2023/09/09 11:19:07;;;;;;;;;;;19.30;57.20;;;;;;5054873;28;20385;-60
2023/09/09 11:21:46;;;;;;;;;;;19.30;56.90;;;;;;5053934;28;21319;-61
2023/09/09 11:24:13;;;;;;;;;;;19.30;57.20;;;;;;5054751;28;20023;-61
2023/09/09 11:26:42;;;;;;;;;;;19.30;57.20;;;;;;5054636;28;19979;-61
2023/09/09 11:29:09;;;;;;;;;;;19.40;57.20;;;;;;5053980;28;20036;-61
2023/09/09 11:31:56;;;;;;;;;;;19.40;57.30;;;;;;5054887;28;19939;-61
2023/09/09 11:34:31;;;;;;;;;;;19.30;57.10;;;;;;5054147;28;19933;-61
2023/09/09 11:36:59;;;;;;;;;;;19.40;57.10;;;;;;5054228;28;19925;-61
2023/09/09 11:39:26;;;;;;;;;;;19.40;57.30;;;;;;5054634;28;19925;-61
2023/09/09 11:41:53;;;;;;;;;;;19.40;57.40;;;;;;5054641;28;19932;-61
2023/09/09 11:44:21;;;;;;;;;;;19.40;57.40;;;;;;5054724;28;19924;-61
2023/09/09 11:46:49;;;;;;;;;;;19.40;57.50;;;;;;5054752;28;19979;-61
2023/09/09 11:49:16;;;;;;;;;;;19.40;57.30;;;;;;5054627;28;19925;-62
2023/09/09 11:51:44;;;;;;;;;;;19.50;57.50;;;;;;5054688;28;19998;-61
2023/09/09 11:54:18;;;;;;;;;;;19.50;57.50;;;;;;5054179;28;19940;-61
2023/09/09 11:56:45;;;;;;;;;;;19.50;57.60;;;;;;5054165;28;19975;-61
2023/09/09 11:59:12;;;;;;;;;;;19.50;57.50;;;;;;5053927;28;19960;-61
2023/09/09 12:01:43;;;;;;;;;;;19.50;57.40;;;;;;5053806;28;20407;-61
2023/09/09 12:04:11;;;;;;;;;;;19.60;57.60;;;;;;5053991;28;19956;-61
2023/09/09 12:06:39;;;;;;;;;;;19.60;57.50;;;;;;5054258;28;19929;-61
2023/09/09 12:09:07;;;;;;;;;;;19.60;57.60;;;;;;5054328;28;19960;-61
2023/09/09 12:11:34;;;;;;;;;;;19.70;57.40;;;;;;5053479;28;19983;-61
2023/09/09 12:14:02;;;;;;;;;;;19.70;57.40;;;;;;5053752;28;19924;-61
2023/09/09 12:16:30;;;;;;;;;;;19.70;57.40;;;;;;5053379;28;20007;-61
2023/09/09 12:18:57;;;;;;;;;;;19.80;57.70;;;;;;5054046;28;19931;-61
2023/09/09 12:21:24;;;;;;;;;;;19.80;57.10;;;;;;5053639;28;19924;-61
2023/09/09 12:23:58;;;;;;;;;;;19.80;57.50;;;;;;5052981;28;19929;-61
2023/09/09 12:26:26;;;;;;;;;;;19.80;57.10;;;;;;5053385;28;20023;-61
2023/09/09 12:29:10;;;;;;;;;;;19.90;57.30;;;;;;5053197;28;19936;-61
2023/09/09 12:31:51;;;;;;;;;;;19.90;57.30;;;;;;5053407;28;20003;-61
2023/09/09 12:34:19;;;;;;;;;;;19.90;57.10;;;;;;5068809;28;19986;-61
2023/09/09 12:36:50;;;;;;;;;;;19.90;57.10;;;;;;5053419;28;19924;-61
2023/09/09 12:39:18;;;;;;;;;;;19.90;57.30;;;;;;5053657;28;20044;-61
2023/09/09 12:42:01;;;;;;;;;;;19.90;57.00;;;;;;5053185;28;20443;-61
2023/09/09 12:44:31;;;;;;;;;;;20.00;57.00;;;;;;5053274;28;19972;-61
2023/09/09 12:47:02;;;;;;;;;;;20.00;57.20;;;;;;5052892;28;19978;-61
2023/09/09 12:49:29;;;;;;;;;;;20.00;57.20;;;;;;5053250;28;19971;-61
2023/09/09 12:51:56;;;;;;;;;;;20.00;57.30;;;;;;5053581;28;19925;-61
2023/09/09 12:54:23;;;;;;;;;;;20.00;57.00;;;;;;5053293;28;19925;-61
2023/09/09 12:56:50;;;;;;;;;;;20.00;56.80;;;;;;5052104;28;20023;-61
2023/09/09 12:59:17;;;;;;;;;;;20.10;56.80;;;;;;5052089;28;19925;-61
2023/09/09 13:01:44;;;;;;;;;;;20.00;57.10;;;;;;5053408;28;20023;-61
2023/09/09 13:04:11;;;;;;;;;;;20.10;57.30;;;;;;5053313;28;19956;-61
2023/09/09 13:06:38;;;;;;;;;;;20.10;57.20;;;;;;5053291;28;19947;-61
2023/09/09 13:09:05;;;;;;;;;;;20.10;57.70;;;;;;5053709;28;19948;-61
2023/09/09 13:11:32;;;;;;;;;;;20.10;57.00;;;;;;5053266;28;19968;-61
2023/09/09 13:14:01;;;;;;;;;;;20.10;56.90;;;;;;5052937;28;19924;-61
2023/09/09 13:16:49;;;;;;;;;;;20.20;57.20;;;;;;5052974;28;20320;-61
2023/09/09 13:19:20;;;;;;;;;;;20.10;56.90;;;;;;5053266;28;19925;-61
2023/09/09 13:21:48;;;;;;;;;;;20.10;56.90;;;;;;5053328;28;19933;-61
2023/09/09 13:24:15;;;;;;;;;;;20.20;56.90;;;;;;5056913;28;19932;-61
2023/09/09 13:26:42;;;;;;;;;;;20.20;57.00;;;;;;5056829;28;19970;-61
2023/09/09 13:29:09;;;;;;;;;;;20.20;56.70;;;;;;5057116;28;19979;-61
2023/09/09 13:31:36;;;;;;;;;;;20.20;56.80;;;;;;5056777;28;19925;-61
2023/09/09 13:34:03;;;;;;;;;;;20.20;56.80;;;;;;5057233;28;19924;-61
2023/09/09 13:36:30;;;;;;;;;;;20.20;56.90;;;;;;5056785;28;19925;-61
2023/09/09 13:38:57;;;;;;;;;;;20.20;56.40;;;;;;5056762;28;19983;-61
2023/09/09 13:41:28;;;;;;;;;;;20.20;56.50;;;;;;5056866;28;19929;-61
2023/09/09 13:43:55;;;;;;;;;;;20.20;56.40;;;;;;5055483;28;20096;-61
2023/09/09 13:46:24;;;;;;;;;;;20.20;56.50;;;;;;5056618;28;19932;-61
2023/09/09 13:48:51;;;;;;;;;;;20.20;56.00;;;;;;5056783;28;19932;-61
2023/09/09 13:51:18;;;;;;;;;;;20.20;56.20;;;;;;5056294;28;20377;-61
2023/09/09 13:53:45;;;;;;;;;;;20.30;56.00;;;;;;5056762;28;19925;-61
2023/09/09 13:56:13;;;;;;;;;;;20.30;56.40;;;;;;5055408;28;19978;-61
2023/09/09 13:58:40;;;;;;;;;;;20.30;56.40;;;;;;5056808;28;19924;-61
2023/09/09 14:01:07;;;;;;;;;;;20.30;56.20;;;;;;5056650;28;19986;-61
2023/09/09 14:03:34;;;;;;;;;;;20.30;56.00;;;;;;5056261;28;19986;-61
2023/09/09 14:06:01;;;;;;;;;;;20.30;61.20;;;;;;5056091;28;20387;-61
2023/09/09 14:08:28;;;;;;;;;;;20.40;67.40;;;;;;5056317;28;19924;-61
2023/09/09 14:10:55;;;;;;;;;;;20.60;70.60;;;;;;5056083;28;20396;-61
2023/09/09 14:13:22;;;;;;;;;;;20.90;71.50;;;;;;5056346;28;19925;-61
2023/09/09 14:15:49;;;;;;;;;;;21.10;72.00;;;;;;5055628;28;19924;-61
2023/09/09 14:18:16;;;;;;;;;;;21.30;71.90;;;;;;5055764;28;19932;-61
2023/09/09 14:20:43;;;;;;;;;;;21.50;71.70;;;;;;5055968;28;19925;-61